Revelstoke Airport
CYRV : now visible

Airfield :











YOU CAN JOIN US ON...

 
LOGIN :

Register | Disclaimer

   EN    FR    IT 

 









Legend :    VFR   Marginal VFR   IFR   Intensive IFR   Very Intensive IFR
Visi :
Ceiling :
>= 8 km
>= 3000ft
5 to 8 km
1000 to 3000 ft
1500m to 5 km
500 to 1000 ft
800 to 1500m
200 to 500 ft
< 800m
< 200 ft
Symbols :   Thunderstorms  Fog  Heavy snow  Heavy precipitations  Wind > 20 kt






- Airport Elevation : 1459 ft
- IATA code : YRV


CYRV - Revelstoke

CURRENT METAR :
  • 071005Z AUTO 04003KT 9SM FEW002 08/08 A3036 RMK SLP293

EXPIRED METARs :
  • 070951Z AUTO 00000KT 3/8SM FG FEW002 06/06 A3035 RMK SLP294
  • 070936Z AUTO 00000KT 7SM FEW003 08/08 A3035 RMK SLP291
  • 070934Z AUTO 09002KT 3SM BR FEW003 08/08 A3035 RMK SLP291
  • 070922Z AUTO 00000KT 5/8SM BR SCT003 08/08 A3035 RMK SLP291
  • 070911Z AUTO VRB02KT 1/4SM FG BKN003 07/07 A3035 RMK SLP291
  • 070904Z AUTO VRB02KT 2SM BR FEW003 07/06 A3034 RMK SLP290
  • 070829Z AUTO 05002KT 9SM SCT003 09/09 A3034 RMK SLP286
  • 070816Z AUTO 00000KT 3/8SM FG SCT003 08/08 A3034 RMK SLP287
  • 070808Z AUTO VRB02KT 2 1/2SM BR CLR 07/07 A3034 RMK VIS VRB 5/8-3 SLP288
  • 070748Z AUTO 00000KT 6SM BR CLR 09/09 A3033 RMK SLP283
  • 070742Z AUTO 00000KT 1/2SM FG CLR 09/08 A3033 RMK SLP284
  • 070731Z AUTO 00000KT 2SM BR CLR 08/07 A3033 RMK SLP284
  • 070700Z AUTO 00000KT 9SM CLR 10/09 A3032 RMK SLP275

TAF N/A
CZVR FIR / North America



MET'MAP, your aeronautical weather chart ! - Copyright ORBIFLY December 2007 - Disclaimer

ORBIFLY MET'MAP TEAM :

Programming & Development : Alexandra Zaïnal
Original concept : Baudouin d'Aumeries
Technical & hardware support : Manuel Goepfert
Assistance : Marc-Olivier Méhu




SOURCES & CREDITS :

   NOAA       Earth
Advisory